Time;durP1;ratioP1;P1;durP2;ratioP2;P2;SDS_P1;SDS_P2;PMS_P1;PMS_P2;Temp;Humidity;BMP_temperature;BMP_pressure;BME280_temperature;BME280_humidity;BME280_pressure;Samples;Min_cycle;Max_cycle;Signal;HPM_P1;HPM_P2
2023/09/28 00:00:35;;;;;;;3.90;3.50;;;15.00;99.20;;;;;;5110714;28;21295;-72
2023/09/28 00:02:48;;;;;;;4.37;3.30;;;15.00;99.10;;;;;;5104738;28;20632;-72
2023/09/28 00:05:16;;;;;;;3.67;2.70;;;14.80;98.80;;;;;;5107194;28;20623;-72
2023/09/28 00:07:42;;;;;;;4.57;3.77;;;14.90;99.20;;;;;;5114154;28;20620;-72
2023/09/28 00:10:12;;;;;;;3.63;3.20;;;14.80;99.00;;;;;;5107262;28;20707;-73
2023/09/28 00:12:40;;;;;;;4.27;3.40;;;14.80;99.20;;;;;;5109761;28;20650;-73
2023/09/28 00:15:10;;;;;;;4.00;3.70;;;14.80;99.00;;;;;;5108332;28;21378;-73
2023/09/28 00:17:38;;;;;;;4.97;3.73;;;14.80;98.70;;;;;;5107025;28;21214;-73
2023/09/28 00:20:09;;;;;;;4.80;4.30;;;14.80;98.80;;;;;;5108570;28;21047;-73
2023/09/28 00:22:35;;;;;;;4.50;3.23;;;14.70;98.80;;;;;;5114436;28;20632;-73
2023/09/28 00:25:09;;;;;;;4.77;4.03;;;14.70;99.00;;;;;;5107819;28;20718;-73
2023/09/28 00:27:35;;;;;;;4.43;4.03;;;14.70;99.40;;;;;;5107799;28;20742;-73
2023/09/28 00:30:03;;;;;;;4.03;3.73;;;14.60;99.30;;;;;;5113546;28;20618;-73
2023/09/28 00:32:32;;;;;;;3.80;3.30;;;14.60;99.40;;;;;;5110619;28;20727;-73
2023/09/28 00:34:58;;;;;;;4.17;3.77;;;14.60;99.50;;;;;;5098109;28;20629;-73
2023/09/28 00:37:25;;;;;;;3.77;3.47;;;14.50;99.70;;;;;;5109065;27;20615;-71
2023/09/28 00:39:54;;;;;;;4.33;3.97;;;14.60;99.40;;;;;;5112946;27;20211;-72
2023/09/28 00:42:22;;;;;;;5.97;3.43;;;14.50;99.30;;;;;;5109528;27;20619;-72
2023/09/28 00:44:47;;;;;;;5.20;3.73;;;14.50;99.40;;;;;;5114454;27;20619;-72
2023/09/28 00:47:15;;;;;;;5.63;3.70;;;14.50;99.40;;;;;;5105301;27;21039;-72
2023/09/28 00:49:43;;;;;;;3.23;2.93;;;14.40;99.60;;;;;;5112602;27;20268;-71
2023/09/28 00:52:11;;;;;;;3.90;3.50;;;14.50;99.80;;;;;;5114243;27;20630;-72
2023/09/28 00:54:38;;;;;;;3.60;3.10;;;14.40;99.70;;;;;;5101115;28;20616;-72
2023/09/28 00:57:06;;;;;;;5.70;3.67;;;14.30;99.90;;;;;;5109418;27;21222;-72
2023/09/28 00:59:32;;;;;;;4.13;3.60;;;14.30;99.70;;;;;;5109173;27;21078;-72
2023/09/28 01:02:00;;;;;;;3.97;3.57;;;14.20;99.70;;;;;;5112225;27;20633;-72
2023/09/28 01:04:26;;;;;;;3.13;2.87;;;14.20;99.70;;;;;;5111774;27;20195;-72
2023/09/28 01:06:54;;;;;;;3.40;3.10;;;14.20;99.90;;;;;;5114059;27;20621;-72
2023/09/28 01:09:23;;;;;;;4.30;3.90;;;14.10;99.90;;;;;;5116761;27;21179;-72
2023/09/28 01:11:52;;;;;;;3.30;3.00;;;14.10;99.90;;;;;;5112179;27;21194;-72
2023/09/28 01:14:21;;;;;;;3.63;3.13;;;14.10;99.90;;;;;;5114030;27;20627;-73
2023/09/28 01:16:48;;;;;;;2.90;2.70;;;14.10;99.90;;;;;;5109891;27;20924;-72
2023/09/28 01:19:14;;;;;;;3.63;2.87;;;14.10;99.90;;;;;;5116164;27;20627;-72
2023/09/28 01:21:42;;;;;;;3.30;3.00;;;14.10;99.80;;;;;;5114343;27;20821;-72
2023/09/28 01:24:10;;;;;;;3.40;3.03;;;14.10;99.80;;;;;;5115892;27;20659;-72
2023/09/28 01:26:39;;;;;;;3.63;3.33;;;14.10;99.90;;;;;;5112500;27;20626;-72
2023/09/28 01:29:07;;;;;;;5.80;3.50;;;14.10;99.90;;;;;;5113926;27;20623;-72
2023/09/28 01:31:35;;;;;;;4.10;3.20;;;14.10;99.90;;;;;;5116231;27;20607;-72
2023/09/28 01:34:04;;;;;;;3.23;2.93;;;14.10;99.90;;;;;;5114607;27;20614;-72
2023/09/28 01:36:30;;;;;;;4.57;3.70;;;14.00;99.90;;;;;;5113529;27;20624;-72
2023/09/28 01:39:07;;;;;;;3.93;3.53;;;14.00;99.90;;;;;;5115131;27;21458;-73
2023/09/28 01:41:36;;;;;;;3.47;2.73;;;14.00;99.90;;;;;;5114576;27;20646;-73
2023/09/28 01:44:03;;;;;;;3.83;3.53;;;14.00;99.90;;;;;;5114244;27;20663;-73
2023/09/28 01:46:30;;;;;;;2.73;2.53;;;14.00;99.90;;;;;;5114571;27;20627;-73
2023/09/28 01:48:58;;;;;;;3.80;3.03;;;14.00;99.90;;;;;;5112776;27;20635;-73
2023/09/28 01:51:25;;;;;;;3.90;2.80;;;14.00;99.90;;;;;;5108691;27;20615;-73
2023/09/28 01:53:53;;;;;;;3.97;3.60;;;14.00;99.90;;;;;;5110015;27;21084;-73
2023/09/28 01:56:21;;;;;;;3.83;3.50;;;14.00;99.90;;;;;;5103282;28;21204;-73
2023/09/28 01:58:50;;;;;;;3.50;3.17;;;14.00;99.50;;;;;;5101267;28;21108;-73
2023/09/28 02:01:22;;;;;;;3.10;2.80;;;14.10;99.40;;;;;;5096521;27;20646;-73
2023/09/28 02:03:50;;;;;;;5.37;3.00;;;14.20;99.30;;;;;;5111868;27;20616;-73
2023/09/28 02:06:18;;;;;;;3.87;3.20;;;14.20;99.10;;;;;;5109247;27;20619;-73
2023/09/28 02:08:46;;;;;;;3.33;3.03;;;14.20;99.10;;;;;;5114617;27;20718;-73
2023/09/28 02:11:13;;;;;;;4.93;3.20;;;14.20;98.90;;;;;;5108418;27;21184;-73
2023/09/28 02:13:41;;;;;;;4.20;3.20;;;14.30;98.80;;;;;;5111634;27;20628;-73
2023/09/28 02:16:11;;;;;;;7.03;3.10;;;14.30;98.60;;;;;;5107884;27;20627;-73
2023/09/28 02:18:41;;;;;;;2.87;2.67;;;14.20;98.70;;;;;;5113941;27;21036;-73
2023/09/28 02:21:13;;;;;;;3.90;3.60;;;14.20;98.90;;;;;;5108085;27;21025;-72
2023/09/28 02:23:41;;;;;;;3.80;3.47;;;14.30;99.00;;;;;;5102912;28;21192;-72
2023/09/28 02:26:07;;;;;;;5.97;3.43;;;14.20;98.80;;;;;;5114959;27;21065;-71
2023/09/28 02:28:34;;;;;;;3.73;3.43;;;14.20;98.90;;;;;;5112715;27;20633;-72
2023/09/28 02:31:06;;;;;;;3.20;2.90;;;14.20;98.90;;;;;;5110834;27;20624;-72
2023/09/28 02:33:34;;;;;;;3.03;2.83;;;14.20;98.90;;;;;;5109807;27;20619;-72
2023/09/28 02:36:00;;;;;;;4.83;2.90;;;14.10;98.80;;;;;;5109449;27;20679;-72
2023/09/28 02:38:27;;;;;;;3.33;3.03;;;14.10;99.00;;;;;;5107561;27;20631;-73
2023/09/28 02:40:53;;;;;;;5.80;3.73;;;14.10;99.20;;;;;;5111264;27;20656;-73
2023/09/28 02:43:21;;;;;;;3.83;2.97;;;14.10;99.20;;;;;;5115668;27;20722;-73
2023/09/28 02:45:48;;;;;;;4.47;2.90;;;14.00;99.20;;;;;;5109718;27;20655;-73
2023/09/28 02:48:16;;;;;;;4.40;4.10;;;14.00;99.40;;;;;;5106925;27;20624;-73
2023/09/28 02:50:44;;;;;;;4.10;3.23;;;13.90;99.90;;;;;;5106582;27;20666;-73
2023/09/28 02:53:12;;;;;;;6.50;3.87;;;13.90;99.90;;;;;;5110752;27;20723;-72
2023/09/28 02:55:41;;;;;;;5.40;5.00;;;13.90;99.90;;;;;;5107410;27;20609;-72
2023/09/28 02:58:09;;;;;;;3.97;3.57;;;13.80;99.90;;;;;;5098991;28;20988;-73
2023/09/28 03:00:40;;;;;;;3.70;3.13;;;13.80;99.90;;;;;;5109461;27;20643;-73
2023/09/28 03:03:09;;;;;;;4.20;2.90;;;13.80;99.90;;;;;;5109724;27;20618;-73
2023/09/28 03:05:39;;;;;;;3.33;2.90;;;13.70;99.90;;;;;;5104668;27;21042;-73
2023/09/28 03:08:09;;;;;;;4.07;3.70;;;13.80;99.90;;;;;;5114240;27;20738;-73
2023/09/28 03:10:40;;;;;;;4.43;3.43;;;13.80;99.90;;;;;;5113360;27;20841;-72
2023/09/28 03:13:09;;;;;;;3.60;3.30;;;13.70;99.90;;;;;;5103819;27;20624;-73
2023/09/28 03:15:36;;;;;;;3.87;3.57;;;13.80;99.90;;;;;;5109657;27;20624;-73
2023/09/28 03:18:05;;;;;;;4.10;3.50;;;13.70;99.90;;;;;;5106223;27;21142;-72
2023/09/28 03:20:33;;;;;;;4.10;3.80;;;13.70;99.90;;;;;;5114217;27;20648;-73
2023/09/28 03:23:01;;;;;;;3.83;3.53;;;13.70;99.90;;;;;;5113700;27;20630;-73
2023/09/28 03:25:30;;;;;;;3.53;3.23;;;13.80;99.90;;;;;;5113310;27;20758;-73
2023/09/28 03:27:58;;;;;;;3.80;3.47;;;13.80;99.90;;;;;;5112207;27;21057;-73
2023/09/28 03:30:25;;;;;;;4.50;3.70;;;13.80;99.90;;;;;;5110947;27;20631;-73
2023/09/28 03:32:54;;;;;;;3.60;3.30;;;13.80;99.90;;;;;;5100831;28;20628;-73
2023/09/28 03:35:21;;;;;;;4.17;3.47;;;13.70;99.90;;;;;;5108810;27;20623;-73
2023/09/28 03:37:53;;;;;;;3.80;3.23;;;13.70;99.90;;;;;;5106660;27;20626;-73
2023/09/28 03:40:21;;;;;;;3.47;3.00;;;13.70;99.90;;;;;;5109779;27;20680;-72
2023/09/28 03:42:51;;;;;;;4.10;3.70;;;13.60;99.90;;;;;;5104499;27;20620;-72
2023/09/28 03:45:21;;;;;;;4.27;3.30;;;13.60;99.90;;;;;;5102045;27;20620;-72
2023/09/28 03:47:50;;;;;;;6.70;3.23;;;13.60;99.90;;;;;;5102657;28;20631;-73
2023/09/28 03:50:16;;;;;;;4.37;3.60;;;13.70;99.90;;;;;;5109002;28;20620;-73
2023/09/28 03:52:44;;;;;;;6.10;3.77;;;13.70;99.90;;;;;;5112827;28;20631;-73
2023/09/28 03:55:12;;;;;;;4.50;3.70;;;13.80;99.90;;;;;;5101882;28;20631;-73
2023/09/28 03:57:41;;;;;;;5.63;4.07;;;13.80;99.90;;;;;;5098522;28;20986;-73
2023/09/28 04:00:12;;;;;;;3.80;3.50;;;13.80;99.90;;;;;;5111168;28;20615;-73
2023/09/28 04:02:39;;;;;;;3.73;2.93;;;13.90;99.90;;;;;;5114444;28;20634;-73
2023/09/28 04:05:06;;;;;;;4.90;4.40;;;13.80;99.90;;;;;;5112201;28;20622;-72
2023/09/28 04:07:33;;;;;;;3.23;3.03;;;13.80;99.90;;;;;;5113352;28;20641;-72
2023/09/28 04:10:00;;;;;;;4.60;3.70;;;14.00;99.90;;;;;;5107304;28;20649;-72
2023/09/28 04:12:28;;;;;;;4.13;3.47;;;13.90;99.90;;;;;;5111358;27;20662;-71
2023/09/28 04:14:55;;;;;;;4.00;3.70;;;13.80;99.90;;;;;;5114589;27;20975;-72
2023/09/28 04:17:23;;;;;;;5.30;3.53;;;13.80;99.90;;;;;;5112926;27;20638;-72
2023/09/28 04:19:50;;;;;;;3.80;2.90;;;13.80;99.90;;;;;;5115855;27;20623;-72
2023/09/28 04:22:17;;;;;;;5.47;4.00;;;13.90;99.90;;;;;;5115193;27;20814;-72
2023/09/28 04:24:43;;;;;;;3.47;3.17;;;13.70;99.90;;;;;;5115492;27;20618;-72
2023/09/28 04:27:11;;;;;;;5.43;3.30;;;13.60;99.90;;;;;;5114707;27;20635;-72
2023/09/28 04:29:38;;;;;;;4.03;3.47;;;13.60;99.90;;;;;;5115657;27;20700;-72
2023/09/28 04:32:05;;;;;;;3.73;3.20;;;13.70;99.90;;;;;;5116264;27;20624;-72
2023/09/28 04:34:33;;;;;;;3.70;3.40;;;13.60;99.90;;;;;;5114361;27;21847;-72
2023/09/28 04:37:02;;;;;;;4.13;3.50;;;13.60;99.90;;;;;;5115888;27;20636;-72
2023/09/28 04:39:29;;;;;;;4.40;3.30;;;13.70;99.90;;;;;;5113550;27;20627;-72
2023/09/28 04:41:58;;;;;;;5.27;3.87;;;14.00;99.90;;;;;;5114078;27;20937;-72
2023/09/28 04:44:24;;;;;;;3.80;3.50;;;13.90;99.90;;;;;;5114621;27;20622;-72
2023/09/28 04:46:51;;;;;;;3.73;3.40;;;13.90;99.90;;;;;;5109696;27;21226;-73
2023/09/28 04:49:18;;;;;;;9.40;4.43;;;13.80;99.90;;;;;;5104010;28;20618;-73
2023/09/28 04:51:46;;;;;;;4.13;3.63;;;13.90;99.90;;;;;;5111336;27;20620;-73
2023/09/28 04:54:14;;;;;;;8.90;3.90;;;13.80;99.90;;;;;;5114901;27;20630;-73
2023/09/28 04:56:42;;;;;;;3.80;3.40;;;13.80;99.90;;;;;;5110947;27;20989;-73
2023/09/28 04:59:09;;;;;;;4.87;3.53;;;13.90;99.90;;;;;;5117013;27;21058;-73
2023/09/28 05:01:36;;;;;;;4.70;4.30;;;13.90;99.90;;;;;;5107617;27;20645;-73
2023/09/28 05:04:03;;;;;;;5.63;4.10;;;13.90;99.90;;;;;;5103313;27;20621;-72
2023/09/28 05:06:29;;;;;;;4.13;3.40;;;13.90;99.90;;;;;;5092285;28;20634;-73
2023/09/28 05:08:57;;;;;;;6.83;4.07;;;13.90;99.90;;;;;;5103366;27;20634;-72
2023/09/28 05:11:24;;;;;;;4.53;3.97;;;13.90;99.90;;;;;;5114051;27;20984;-72
2023/09/28 05:13:51;;;;;;;3.87;3.13;;;14.00;99.90;;;;;;5114406;27;21175;-72
2023/09/28 05:16:18;;;;;;;7.13;3.60;;;14.00;99.90;;;;;;5113557;27;20623;-72
2023/09/28 05:18:45;;;;;;;4.57;3.70;;;14.10;99.90;;;;;;5116745;27;21196;-72
2023/09/28 05:21:12;;;;;;;13.07;3.80;;;14.10;99.90;;;;;;5112452;27;20899;-72
2023/09/28 05:23:39;;;;;;;4.30;3.30;;;14.10;99.90;;;;;;5106210;27;21717;-72
2023/09/28 05:26:07;;;;;;;3.80;3.37;;;14.00;99.90;;;;;;5117167;27;20622;-72
2023/09/28 05:28:34;;;;;;;7.07;3.97;;;14.00;99.90;;;;;;5107643;27;20631;-73
2023/09/28 05:31:01;;;;;;;4.70;3.63;;;14.10;99.90;;;;;;5108652;27;20849;-73
2023/09/28 05:33:28;;;;;;;3.90;3.43;;;14.10;99.90;;;;;;5116828;27;20626;-72
2023/09/28 05:35:54;;;;;;;4.70;3.40;;;14.20;99.90;;;;;;5116262;27;20652;-72
2023/09/28 05:38:21;;;;;;;3.60;3.30;;;14.10;99.90;;;;;;5109232;27;21179;-72
2023/09/28 05:40:48;;;;;;;5.27;4.07;;;14.10;99.90;;;;;;5111486;27;20655;-72
2023/09/28 05:43:16;;;;;;;4.80;4.03;;;14.10;99.90;;;;;;5113142;27;20622;-72
2023/09/28 05:45:43;;;;;;;10.23;4.13;;;14.10;99.90;;;;;;5111525;27;20620;-73
2023/09/28 05:48:10;;;;;;;4.40;4.00;;;14.10;99.90;;;;;;5114236;27;21059;-73
2023/09/28 05:50:37;;;;;;;4.40;3.83;;;14.10;99.90;;;;;;5108490;27;21176;-73
2023/09/28 05:53:04;;;;;;;5.30;2.90;;;14.10;99.90;;;;;;5108870;27;20641;-73
2023/09/28 05:55:31;;;;;;;4.57;3.73;;;14.10;99.90;;;;;;5110904;27;20615;-73
2023/09/28 05:57:58;;;;;;;4.10;3.40;;;14.10;99.90;;;;;;5112928;27;21469;-72
2023/09/28 06:00:26;;;;;;;6.63;3.53;;;14.10;99.90;;;;;;5112171;27;21195;-72
2023/09/28 06:02:53;;;;;;;5.13;4.33;;;14.10;99.90;;;;;;5109592;27;21034;-72
2023/09/28 06:05:20;;;;;;;4.53;3.77;;;14.10;99.90;;;;;;5110563;27;21179;-72
2023/09/28 06:07:47;;;;;;;4.17;3.70;;;14.10;99.90;;;;;;5109933;27;20974;-72
2023/09/28 06:10:14;;;;;;;6.00;4.93;;;14.20;99.90;;;;;;5103571;27;20630;-73
2023/09/28 06:12:42;;;;;;;4.37;3.93;;;14.30;99.90;;;;;;5107925;27;20638;-72
2023/09/28 06:15:09;;;;;;;4.30;3.90;;;14.40;99.90;;;;;;5108545;27;20674;-72
2023/09/28 06:17:37;;;;;;;6.20;3.97;;;14.40;99.90;;;;;;5117364;27;20638;-72
2023/09/28 06:20:08;;;;;;;5.00;3.90;;;14.50;99.90;;;;;;5113220;27;20981;-73
2023/09/28 06:22:35;;;;;;;4.23;3.83;;;14.40;99.90;;;;;;5112994;27;20649;-72
2023/09/28 06:25:02;;;;;;;4.00;3.70;;;14.40;99.90;;;;;;5109460;27;20681;-73
2023/09/28 06:27:29;;;;;;;5.60;4.60;;;14.40;99.90;;;;;;5111439;27;20676;-73
2023/09/28 06:29:56;;;;;;;11.23;4.40;;;14.50;99.90;;;;;;5110921;27;20620;-73
2023/09/28 06:32:23;;;;;;;7.60;5.73;;;14.50;99.90;;;;;;5114657;27;20650;-72
2023/09/28 06:34:51;;;;;;;5.03;4.20;;;14.70;99.80;;;;;;5110022;27;20683;-72
2023/09/28 06:37:18;;;;;;;5.53;4.30;;;14.80;99.40;;;;;;5109596;27;20726;-72
2023/09/28 06:39:45;;;;;;;4.40;3.83;;;14.90;99.30;;;;;;5111652;27;20643;-73
2023/09/28 06:42:11;;;;;;;3.83;3.13;;;15.00;98.90;;;;;;5112055;27;20669;-72
2023/09/28 06:44:38;;;;;;;4.47;3.90;;;15.20;98.90;;;;;;5113246;27;20615;-72
2023/09/28 06:47:05;;;;;;;4.67;3.97;;;15.50;98.40;;;;;;5109678;27;21060;-72
2023/09/28 06:49:34;;;;;;;4.33;3.90;;;15.60;97.50;;;;;;5104342;27;20628;-72
2023/09/28 06:52:03;;;;;;;4.57;4.17;;;15.80;97.70;;;;;;5104165;27;20634;-73
2023/09/28 06:54:42;;;;;;;;;;;;;;;;;;;;;
2023/09/28 06:57:09;;;;;;;6.47;4.07;;;16.00;98.20;;;;;;5090344;27;20684;-73
2023/09/28 06:59:37;;;;;;;4.97;4.40;;;16.20;98.50;;;;;;5101547;27;20655;-73
2023/09/28 07:02:04;;;;;;;8.40;4.97;;;16.40;98.20;;;;;;5086221;27;20657;-73
2023/09/28 07:04:31;;;;;;;7.67;5.00;;;16.50;97.90;;;;;;5103709;27;20636;-73
2023/09/28 07:06:58;;;;;;;4.53;4.13;;;16.60;97.00;;;;;;5084691;27;20629;-73
2023/09/28 07:09:26;;;;;;;4.07;3.67;;;16.70;96.60;;;;;;5088728;27;20702;-73
2023/09/28 07:11:54;;;;;;;5.27;4.07;;;16.70;97.10;;;;;;5096512;27;21212;-73
2023/09/28 07:14:20;;;;;;;8.50;3.80;;;16.90;95.80;;;;;;5099931;27;20634;-73
2023/09/28 07:16:48;;;;;;;3.80;3.47;;;16.90;95.70;;;;;;5100562;27;20692;-73
2023/09/28 07:19:14;;;;;;;8.63;4.60;;;17.00;95.80;;;;;;5105078;27;20652;-73
2023/09/28 07:21:41;;;;;;;5.37;4.57;;;17.10;94.80;;;;;;5091947;27;21209;-73
2023/09/28 07:24:08;;;;;;;4.60;4.20;;;17.10;95.20;;;;;;5093919;27;20866;-73
2023/09/28 07:26:36;;;;;;;4.47;3.73;;;17.10;95.50;;;;;;5098843;27;21699;-73
2023/09/28 07:29:04;;;;;;;4.10;3.80;;;17.10;95.50;;;;;;5102062;27;21062;-73
2023/09/28 07:31:31;;;;;;;7.80;3.83;;;17.20;94.90;;;;;;5081206;28;20615;-73
2023/09/28 07:33:57;;;;;;;5.57;4.13;;;17.40;95.20;;;;;;5095991;27;20645;-73
2023/09/28 07:36:24;;;;;;;4.27;3.60;;;17.50;94.60;;;;;;5094126;27;21009;-73
2023/09/28 07:38:51;;;;;;;4.40;4.00;;;17.70;94.40;;;;;;5093243;27;20712;-73
2023/09/28 07:41:18;;;;;;;6.23;4.23;;;17.80;94.20;;;;;;5086850;27;20635;-73
2023/09/28 07:43:46;;;;;;;5.07;4.30;;;17.90;94.00;;;;;;5086373;28;20625;-73
2023/09/28 07:46:13;;;;;;;5.40;4.23;;;17.90;94.90;;;;;;5083791;28;20674;-73
2023/09/28 07:48:40;;;;;;;3.80;3.50;;;17.90;94.20;;;;;;5090961;28;20749;-73
2023/09/28 07:51:07;;;;;;;5.00;4.27;;;17.90;94.50;;;;;;5090023;28;20636;-73
2023/09/28 07:53:34;;;;;;;3.73;3.43;;;18.00;94.50;;;;;;5104404;28;20925;-73
2023/09/28 07:56:01;;;;;;;4.33;3.90;;;18.00;94.20;;;;;;5082748;28;20620;-73
2023/09/28 07:58:27;;;;;;;4.40;4.00;;;18.00;94.60;;;;;;5095201;28;20624;-73
2023/09/28 08:00:56;;;;;;;3.63;3.33;;;17.90;94.60;;;;;;5096747;28;20624;-73
2023/09/28 08:03:23;;;;;;;4.77;4.23;;;18.00;95.10;;;;;;5092794;28;20654;-72
2023/09/28 08:05:49;;;;;;;3.50;3.20;;;18.20;94.10;;;;;;5103270;28;20622;-73
2023/09/28 08:08:18;;;;;;;4.10;3.70;;;18.10;94.50;;;;;;5086536;28;21588;-73
2023/09/28 08:10:45;;;;;;;3.93;3.53;;;18.30;94.70;;;;;;5095319;28;20633;-73
2023/09/28 08:13:12;;;;;;;4.30;3.47;;;18.60;93.70;;;;;;5094350;28;21058;-73
2023/09/28 08:15:39;;;;;;;3.97;3.63;;;18.80;94.10;;;;;;5097085;28;21846;-72
2023/09/28 08:18:08;;;;;;;5.10;3.57;;;18.90;93.70;;;;;;5098491;28;20633;-73
2023/09/28 08:20:35;;;;;;;4.13;3.70;;;19.00;93.20;;;;;;5088087;28;20745;-73
2023/09/28 08:23:01;;;;;;;3.70;3.40;;;19.10;92.80;;;;;;5085898;28;20647;-73
2023/09/28 08:25:29;;;;;;;6.43;3.50;;;19.10;92.50;;;;;;5096902;28;20627;-73
2023/09/28 08:27:56;;;;;;;4.20;3.53;;;19.00;92.40;;;;;;5098787;28;20628;-73
2023/09/28 08:30:23;;;;;;;4.97;4.10;;;18.90;92.60;;;;;;5101810;28;20636;-73
2023/09/28 08:32:50;;;;;;;4.13;3.73;;;18.90;92.70;;;;;;5104953;28;20676;-73
2023/09/28 08:35:18;;;;;;;4.30;3.70;;;18.70;93.60;;;;;;5089212;28;20675;-73
2023/09/28 08:37:45;;;;;;;7.13;3.67;;;18.60;94.00;;;;;;5094684;28;20736;-73
2023/09/28 08:40:13;;;;;;;6.20;3.90;;;18.50;93.90;;;;;;5100896;28;20630;-73
2023/09/28 08:42:43;;;;;;;4.23;3.83;;;18.50;93.50;;;;;;5103554;28;20748;-73
2023/09/28 08:45:14;;;;;;;4.50;3.50;;;18.60;94.00;;;;;;5080679;28;20632;-73
2023/09/28 08:47:47;;;;;;;9.47;6.23;;;18.50;93.90;;;;;;5097881;28;20999;-73
2023/09/28 08:50:20;;;;;;;4.83;4.10;;;18.50;94.20;;;;;;5098995;28;21603;-73
2023/09/28 08:52:47;;;;;;;4.17;3.77;;;18.80;93.90;;;;;;5091063;28;20993;-73
2023/09/28 08:55:15;;;;;;;9.30;4.47;;;19.00;93.80;;;;;;5097001;28;20970;-73
2023/09/28 08:57:43;;;;;;;5.37;3.70;;;19.20;93.70;;;;;;5087210;28;20620;-73
2023/09/28 09:00:13;;;;;;;4.60;4.20;;;19.30;93.20;;;;;;5093936;27;20966;-73
2023/09/28 09:02:42;;;;;;;4.13;3.80;;;19.50;92.80;;;;;;5102604;27;20653;-73
2023/09/28 09:05:11;;;;;;;4.87;4.20;;;19.60;92.20;;;;;;5094977;27;20628;-73
2023/09/28 09:07:41;;;;;;;4.53;3.37;;;19.80;91.90;;;;;;5100833;27;20755;-73
2023/09/28 09:10:12;;;;;;;5.60;4.20;;;20.00;92.40;;;;;;5107667;27;20627;-73
2023/09/28 09:12:39;;;;;;;5.20;3.97;;;20.10;91.60;;;;;;5095891;27;20757;-72
2023/09/28 09:15:07;;;;;;;3.07;2.83;;;20.20;91.90;;;;;;5097557;27;20658;-73
2023/09/28 09:17:34;;;;;;;3.80;3.50;;;20.20;91.50;;;;;;5107110;27;21002;-73
2023/09/28 09:20:01;;;;;;;4.70;4.20;;;20.30;91.50;;;;;;5102669;27;20622;-73
2023/09/28 09:22:28;;;;;;;3.60;3.30;;;20.30;91.40;;;;;;5081539;28;20656;-73
2023/09/28 09:24:57;;;;;;;4.67;4.23;;;20.40;91.80;;;;;;5091236;27;20729;-73
2023/09/28 09:27:28;;;;;;;3.63;3.30;;;20.50;90.90;;;;;;5102208;27;20681;-73
2023/09/28 09:29:58;;;;;;;4.13;3.33;;;20.60;90.60;;;;;;5103464;27;20628;-73
2023/09/28 09:32:26;;;;;;;5.27;3.90;;;20.60;91.30;;;;;;5106979;27;20685;-73
2023/09/28 09:34:53;;;;;;;5.60;4.13;;;20.70;91.50;;;;;;5087485;27;20623;-73
2023/09/28 09:37:20;;;;;;;6.07;3.90;;;20.80;90.80;;;;;;5096611;27;20727;-73
2023/09/28 09:39:47;;;;;;;4.33;3.90;;;21.00;90.10;;;;;;5102716;27;20978;-73
2023/09/28 09:42:25;;;;;;;3.47;2.87;;;21.00;91.30;;;;;;5104366;27;20796;-73
2023/09/28 09:44:53;;;;;;;3.57;3.27;;;20.90;91.00;;;;;;5107472;27;20630;-73
2023/09/28 09:47:20;;;;;;;4.23;3.47;;;21.10;90.90;;;;;;5090049;27;20619;-73
2023/09/28 09:49:48;;;;;;;4.13;3.77;;;21.20;90.00;;;;;;5097826;27;20627;-73
2023/09/28 09:52:19;;;;;;;3.63;3.33;;;21.30;90.30;;;;;;5091830;27;20635;-73
2023/09/28 09:54:46;;;;;;;4.67;4.00;;;21.50;88.80;;;;;;5106148;27;20634;-73
2023/09/28 09:57:17;;;;;;;3.53;3.23;;;21.60;88.60;;;;;;5105946;27;21072;-73
2023/09/28 09:59:47;;;;;;;4.13;2.83;;;21.60;88.00;;;;;;5089055;27;20636;-73
2023/09/28 10:02:23;;;;;;;4.30;3.10;;;21.60;86.00;;;;;;5092597;27;21241;-73
2023/09/28 10:04:53;;;;;;;3.50;3.20;;;21.80;85.30;;;;;;5094313;27;20616;-73
2023/09/28 10:07:32;;;;;;;2.50;2.30;;;21.80;86.40;;;;;;5094884;27;20639;-73
2023/09/28 10:09:59;;;;;;;7.43;2.30;;;21.80;86.20;;;;;;5094587;27;20635;-73
2023/09/28 10:12:29;;;;;;;4.63;3.23;;;21.90;84.60;;;;;;5106059;27;20632;-73
2023/09/28 10:14:56;;;;;;;4.67;2.80;;;22.00;85.50;;;;;;5099905;27;20719;-73
2023/09/28 10:17:25;;;;;;;7.07;3.30;;;22.00;82.40;;;;;;5098146;27;21438;-73
2023/09/28 10:19:54;;;;;;;3.37;2.23;;;22.10;83.50;;;;;;5105674;27;20626;-73
2023/09/28 10:22:21;;;;;;;4.07;3.77;;;22.20;84.50;;;;;;5102093;27;20659;-73
2023/09/28 10:24:48;;;;;;;3.13;2.93;;;22.30;85.90;;;;;;5091210;27;20633;-73
2023/09/28 10:27:16;;;;;;;4.43;3.23;;;22.30;83.80;;;;;;5094854;27;21037;-73
2023/09/28 10:29:44;;;;;;;3.43;3.10;;;22.40;82.90;;;;;;5088308;28;21272;-73
2023/09/28 10:32:27;;;;;;;5.23;3.00;;;22.60;81.00;;;;;;5093252;27;20958;-73
2023/09/28 10:35:12;;;;;;;3.17;2.93;;;22.60;78.90;;;;;;5106137;27;20631;-73
2023/09/28 10:37:39;;;;;;;2.40;2.20;;;22.60;80.80;;;;;;5085528;28;20639;-73
2023/09/28 10:40:07;;;;;;;2.30;2.10;;;22.60;79.00;;;;;;5097474;27;20629;-73
2023/09/28 10:42:35;;;;;;;5.17;2.73;;;22.70;78.40;;;;;;5100727;27;20678;-73
2023/09/28 10:45:07;;;;;;;2.30;2.10;;;22.70;77.20;;;;;;5094713;27;20689;-73
2023/09/28 10:47:35;;;;;;;2.57;2.30;;;22.80;76.70;;;;;;5099266;27;20622;-73
2023/09/28 10:50:04;;;;;;;1.70;1.60;;;22.90;76.20;;;;;;5084126;28;20637;-73
2023/09/28 10:52:31;;;;;;;2.23;2.00;;;23.10;74.90;;;;;;5093988;27;20993;-73
2023/09/28 10:54:58;;;;;;;3.03;2.40;;;23.10;76.50;;;;;;5093915;27;20670;-72
2023/09/28 10:57:31;;;;;;;3.10;2.80;;;23.10;76.50;;;;;;5094394;27;20637;-72
2023/09/28 11:00:00;;;;;;;3.90;3.00;;;23.10;78.20;;;;;;5103357;27;20631;-73
2023/09/28 11:02:28;;;;;;;3.17;2.33;;;23.10;76.30;;;;;;5104878;27;21733;-72
2023/09/28 11:04:56;;;;;;;2.80;2.03;;;23.10;78.40;;;;;;5092041;27;20633;-73
2023/09/28 11:07:23;;;;;;;2.90;2.60;;;23.10;77.70;;;;;;5090631;27;21193;-73
2023/09/28 11:09:53;;;;;;;2.30;2.10;;;23.20;74.40;;;;;;5097783;27;20624;-73
2023/09/28 11:12:19;;;;;;;1.90;1.67;;;23.40;72.40;;;;;;5091924;27;20719;-73
2023/09/28 11:14:46;;;;;;;2.93;2.20;;;23.40;71.20;;;;;;5082275;28;20626;-73
2023/09/28 11:17:13;;;;;;;2.73;2.53;;;23.50;72.30;;;;;;5097323;27;20658;-73
2023/09/28 11:19:41;;;;;;;2.90;2.13;;;23.50;70.60;;;;;;5101436;27;20621;-73
2023/09/28 11:22:08;;;;;;;2.00;1.77;;;23.40;69.50;;;;;;5094819;27;20628;-73
2023/09/28 11:24:35;;;;;;;2.83;2.57;;;23.40;70.90;;;;;;5098764;27;20673;-74
2023/09/28 11:27:02;;;;;;;1.70;1.60;;;23.50;68.40;;;;;;5084210;28;21249;-73
2023/09/28 11:29:30;;;;;;;2.10;1.90;;;23.50;69.30;;;;;;5099569;27;20759;-73
2023/09/28 11:31:56;;;;;;;2.03;1.83;;;23.40;72.10;;;;;;5098210;27;20765;-73
2023/09/28 11:34:30;;;;;;;1.67;1.53;;;23.40;67.80;;;;;;5094523;27;20728;-73
2023/09/28 11:36:59;;;;;;;2.67;2.47;;;23.50;68.00;;;;;;5100041;27;21243;-73
2023/09/28 11:39:26;;;;;;;1.97;1.60;;;23.50;65.30;;;;;;5080135;28;20631;-73
2023/09/28 11:41:58;;;;;;;1.53;1.43;;;23.50;66.50;;;;;;5096645;28;20631;-73
2023/09/28 11:44:26;;;;;;;1.80;1.70;;;23.50;66.20;;;;;;5098691;27;20660;-73
2023/09/28 11:46:53;;;;;;;1.60;1.50;;;23.60;65.80;;;;;;5094640;27;21203;-73
2023/09/28 11:49:22;;;;;;;2.43;1.50;;;23.60;63.60;;;;;;5101955;27;20630;-73
2023/09/28 11:51:49;;;;;;;2.33;1.83;;;23.70;62.80;;;;;;5082599;28;20642;-73
2023/09/28 11:54:18;;;;;;;2.10;1.47;;;23.60;63.50;;;;;;5097403;28;20707;-73
2023/09/28 11:56:45;;;;;;;1.90;1.80;;;23.70;65.20;;;;;;5098951;28;20917;-73
2023/09/28 11:59:15;;;;;;;1.90;1.60;;;23.70;63.70;;;;;;5094102;28;21647;-73
2023/09/28 12:01:42;;;;;;;2.23;1.83;;;23.70;65.80;;;;;;5108752;28;20628;-73
2023/09/28 12:04:09;;;;;;;2.37;1.87;;;23.70;65.60;;;;;;5106814;28;20650;-73
2023/09/28 12:06:37;;;;;;;1.73;1.50;;;23.70;66.00;;;;;;5091593;28;20632;-73
2023/09/28 12:09:05;;;;;;;7.73;2.30;;;23.80;65.20;;;;;;5093298;28;20747;-73
2023/09/28 12:11:34;;;;;;;2.03;1.83;;;23.80;64.40;;;;;;5095624;28;20623;-73
2023/09/28 12:14:00;;;;;;;1.63;1.43;;;23.90;64.80;;;;;;5105837;28;20618;-72
2023/09/28 12:16:28;;;;;;;2.00;1.77;;;24.00;63.20;;;;;;5093634;28;20614;-73
2023/09/28 12:18:54;;;;;;;1.40;1.30;;;24.00;63.40;;;;;;5097736;28;21731;-72
2023/09/28 12:21:21;;;;;;;1.67;1.57;;;24.10;61.40;;;;;;5097422;28;20738;-72
2023/09/28 12:23:48;;;;;;;1.60;1.50;;;24.10;62.60;;;;;;5098770;28;20659;-73
2023/09/28 12:26:15;;;;;;;1.63;1.53;;;24.10;59.50;;;;;;5099905;28;20634;-73
2023/09/28 12:28:44;;;;;;;1.30;1.20;;;24.20;61.10;;;;;;5082837;28;20737;-73
2023/09/28 12:31:12;;;;;;;2.20;1.60;;;24.30;62.10;;;;;;5096417;28;20666;-72
2023/09/28 12:33:39;;;;;;;1.77;1.63;;;24.40;61.70;;;;;;5101655;27;21303;-73
2023/09/28 12:36:06;;;;;;;1.93;1.70;;;24.40;59.50;;;;;;5104434;27;21731;-73
2023/09/28 12:38:33;;;;;;;1.60;1.50;;;24.50;61.30;;;;;;5104631;27;20628;-73
2023/09/28 12:41:03;;;;;;;2.60;1.60;;;24.60;60.30;;;;;;5082292;28;20639;-73
2023/09/28 12:43:31;;;;;;;2.03;1.93;;;24.60;62.60;;;;;;5090492;27;20644;-73
2023/09/28 12:45:59;;;;;;;1.63;1.37;;;24.60;63.70;;;;;;5099904;27;20864;-72
2023/09/28 12:48:26;;;;;;;1.60;1.50;;;24.70;59.70;;;;;;5103058;27;21250;-73
2023/09/28 12:50:52;;;;;;;1.87;1.60;;;24.70;59.40;;;;;;5104663;27;20630;-73